sensor_id;sensor_type;location;lat;lon;timestamp;P1;durP1;ratioP1;P2;durP2;ratioP2
3225;SDS011;1625;49.884;8.666;2023-02-11T00:02:23;29.87;;;23.07;;
3225;SDS011;1625;49.884;8.666;2023-02-11T00:04:51;31.50;;;24.77;;
3225;SDS011;1625;49.884;8.666;2023-02-11T00:07:17;29.73;;;23.00;;
3225;SDS011;1625;49.884;8.666;2023-02-11T00:09:42;33.50;;;23.90;;
3225;SDS011;1625;49.884;8.666;2023-02-11T00:12:08;31.00;;;24.50;;
3225;SDS011;1625;49.884;8.666;2023-02-11T00:14:33;34.07;;;24.17;;
3225;SDS011;1625;49.884;8.666;2023-02-11T00:16:59;34.73;;;24.57;;
3225;SDS011;1625;49.884;8.666;2023-02-11T00:19:24;33.73;;;22.87;;
3225;SDS011;1625;49.884;8.666;2023-02-11T00:21:50;32.17;;;23.47;;
3225;SDS011;1625;49.884;8.666;2023-02-11T00:24:15;32.60;;;23.57;;
3225;SDS011;1625;49.884;8.666;2023-02-11T00:26:41;33.00;;;24.17;;
3225;SDS011;1625;49.884;8.666;2023-02-11T00:29:06;31.47;;;24.00;;
3225;SDS011;1625;49.884;8.666;2023-02-11T00:31:32;31.60;;;23.23;;
3225;SDS011;1625;49.884;8.666;2023-02-11T00:33:58;31.47;;;23.13;;
3225;SDS011;1625;49.884;8.666;2023-02-11T00:36:26;31.40;;;21.77;;
3225;SDS011;1625;49.884;8.666;2023-02-11T00:38:53;31.40;;;24.67;;
3225;SDS011;1625;49.884;8.666;2023-02-11T00:41:19;30.70;;;22.93;;
3225;SDS011;1625;49.884;8.666;2023-02-11T00:43:46;31.13;;;23.23;;
3225;SDS011;1625;49.884;8.666;2023-02-11T00:46:12;31.27;;;22.90;;
3225;SDS011;1625;49.884;8.666;2023-02-11T00:48:38;32.43;;;22.17;;
3225;SDS011;1625;49.884;8.666;2023-02-11T00:51:04;29.80;;;23.60;;
3225;SDS011;1625;49.884;8.666;2023-02-11T00:53:31;27.90;;;21.50;;
3225;SDS011;1625;49.884;8.666;2023-02-11T00:55:57;32.80;;;24.10;;
3225;SDS011;1625;49.884;8.666;2023-02-11T00:58:22;33.10;;;22.63;;
3225;SDS011;1625;49.884;8.666;2023-02-11T01:00:48;27.20;;;22.60;;
3225;SDS011;1625;49.884;8.666;2023-02-11T01:03:14;30.47;;;23.37;;
3225;SDS011;1625;49.884;8.666;2023-02-11T01:05:40;31.17;;;22.80;;
3225;SDS011;1625;49.884;8.666;2023-02-11T01:08:05;27.90;;;21.33;;
3225;SDS011;1625;49.884;8.666;2023-02-11T01:10:31;26.90;;;20.97;;
3225;SDS011;1625;49.884;8.666;2023-02-11T01:12:57;32.87;;;21.97;;
3225;SDS011;1625;49.884;8.666;2023-02-11T01:15:22;30.83;;;23.43;;
3225;SDS011;1625;49.884;8.666;2023-02-11T01:17:48;27.83;;;21.17;;
3225;SDS011;1625;49.884;8.666;2023-02-11T01:20:15;30.53;;;23.47;;
3225;SDS011;1625;49.884;8.666;2023-02-11T01:22:42;29.93;;;21.70;;
3225;SDS011;1625;49.884;8.666;2023-02-11T01:25:08;27.53;;;21.23;;
3225;SDS011;1625;49.884;8.666;2023-02-11T01:27:34;33.87;;;22.80;;
3225;SDS011;1625;49.884;8.666;2023-02-11T01:30:01;26.57;;;22.07;;
3225;SDS011;1625;49.884;8.666;2023-02-11T01:32:27;30.83;;;22.77;;
3225;SDS011;1625;49.884;8.666;2023-02-11T01:34:53;25.83;;;19.73;;
3225;SDS011;1625;49.884;8.666;2023-02-11T01:37:19;27.13;;;20.80;;
3225;SDS011;1625;49.884;8.666;2023-02-11T01:39:44;29.03;;;21.17;;
3225;SDS011;1625;49.884;8.666;2023-02-11T01:42:11;28.73;;;20.57;;
3225;SDS011;1625;49.884;8.666;2023-02-11T01:44:40;27.70;;;20.67;;
3225;SDS011;1625;49.884;8.666;2023-02-11T01:47:06;29.20;;;21.57;;
3225;SDS011;1625;49.884;8.666;2023-02-11T01:49:33;26.33;;;21.33;;
3225;SDS011;1625;49.884;8.666;2023-02-11T01:54:54;27.50;;;20.00;;
3225;SDS011;1625;49.884;8.666;2023-02-11T01:57:42;28.83;;;21.03;;
3225;SDS011;1625;49.884;8.666;2023-02-11T02:02:41;27.10;;;20.93;;
3225;SDS011;1625;49.884;8.666;2023-02-11T02:07:58;24.50;;;17.50;;
3225;SDS011;1625;49.884;8.666;2023-02-11T02:10:35;23.77;;;18.40;;
3225;SDS011;1625;49.884;8.666;2023-02-11T02:13:04;23.80;;;18.23;;
3225;SDS011;1625;49.884;8.666;2023-02-11T02:15:31;27.10;;;19.50;;
3225;SDS011;1625;49.884;8.666;2023-02-11T02:23:22;26.00;;;17.60;;
3225;SDS011;1625;49.884;8.666;2023-02-11T02:28:35;24.37;;;17.93;;
3225;SDS011;1625;49.884;8.666;2023-02-11T02:31:27;24.77;;;18.67;;
3225;SDS011;1625;49.884;8.666;2023-02-11T02:34:01;27.80;;;19.10;;
3225;SDS011;1625;49.884;8.666;2023-02-11T02:37:08;26.57;;;18.10;;
3225;SDS011;1625;49.884;8.666;2023-02-11T02:39:39;19.90;;;16.87;;
3225;SDS011;1625;49.884;8.666;2023-02-11T02:42:05;25.10;;;17.47;;
3225;SDS011;1625;49.884;8.666;2023-02-11T02:44:32;21.97;;;17.37;;
3225;SDS011;1625;49.884;8.666;2023-02-11T02:46:58;26.83;;;19.83;;
3225;SDS011;1625;49.884;8.666;2023-02-11T02:49:23;24.13;;;16.90;;
3225;SDS011;1625;49.884;8.666;2023-02-11T02:54:44;23.97;;;18.10;;
3225;SDS011;1625;49.884;8.666;2023-02-11T03:02:37;21.90;;;17.20;;
3225;SDS011;1625;49.884;8.666;2023-02-11T03:05:30;22.00;;;16.63;;
3225;SDS011;1625;49.884;8.666;2023-02-11T03:08:06;25.00;;;17.90;;
3225;SDS011;1625;49.884;8.666;2023-02-11T03:10:49;21.97;;;17.30;;
3225;SDS011;1625;49.884;8.666;2023-02-11T03:13:18;21.70;;;17.90;;
3225;SDS011;1625;49.884;8.666;2023-02-11T03:15:48;23.23;;;17.93;;
3225;SDS011;1625;49.884;8.666;2023-02-11T03:18:18;23.17;;;17.60;;
3225;SDS011;1625;49.884;8.666;2023-02-11T03:20:47;25.30;;;18.63;;
3225;SDS011;1625;49.884;8.666;2023-02-11T03:23:18;25.13;;;18.80;;
3225;SDS011;1625;49.884;8.666;2023-02-11T03:25:59;22.20;;;18.00;;
3225;SDS011;1625;49.884;8.666;2023-02-11T03:28:33;20.70;;;16.70;;
3225;SDS011;1625;49.884;8.666;2023-02-11T03:33:59;21.73;;;16.70;;
3225;SDS011;1625;49.884;8.666;2023-02-11T03:39:09;22.13;;;17.40;;
3225;SDS011;1625;49.884;8.666;2023-02-11T03:41:38;24.27;;;17.43;;
3225;SDS011;1625;49.884;8.666;2023-02-11T03:44:06;23.13;;;18.70;;
3225;SDS011;1625;49.884;8.666;2023-02-11T03:46:32;22.60;;;16.50;;
3225;SDS011;1625;49.884;8.666;2023-02-11T03:49:03;18.10;;;15.90;;
3225;SDS011;1625;49.884;8.666;2023-02-11T03:51:33;18.17;;;16.20;;
3225;SDS011;1625;49.884;8.666;2023-02-11T03:54:01;24.27;;;17.50;;
3225;SDS011;1625;49.884;8.666;2023-02-11T03:56:30;22.40;;;17.73;;
3225;SDS011;1625;49.884;8.666;2023-02-11T03:59:02;24.73;;;16.67;;
3225;SDS011;1625;49.884;8.666;2023-02-11T04:01:28;24.00;;;17.87;;
3225;SDS011;1625;49.884;8.666;2023-02-11T04:03:53;22.50;;;16.43;;
3225;SDS011;1625;49.884;8.666;2023-02-11T04:06:19;22.50;;;16.87;;
3225;SDS011;1625;49.884;8.666;2023-02-11T04:08:44;20.90;;;15.97;;
3225;SDS011;1625;49.884;8.666;2023-02-11T04:11:10;23.07;;;17.33;;
3225;SDS011;1625;49.884;8.666;2023-02-11T04:13:35;22.20;;;15.57;;
3225;SDS011;1625;49.884;8.666;2023-02-11T04:16:01;23.07;;;16.10;;
3225;SDS011;1625;49.884;8.666;2023-02-11T04:18:26;23.43;;;17.40;;
3225;SDS011;1625;49.884;8.666;2023-02-11T04:20:52;25.63;;;17.10;;
3225;SDS011;1625;49.884;8.666;2023-02-11T04:23:17;27.23;;;19.53;;
3225;SDS011;1625;49.884;8.666;2023-02-11T04:25:43;24.50;;;17.13;;
3225;SDS011;1625;49.884;8.666;2023-02-11T04:28:08;24.50;;;18.23;;
3225;SDS011;1625;49.884;8.666;2023-02-11T04:30:34;24.00;;;17.00;;
3225;SDS011;1625;49.884;8.666;2023-02-11T04:32:59;23.80;;;16.93;;
3225;SDS011;1625;49.884;8.666;2023-02-11T04:35:25;25.33;;;18.47;;
3225;SDS011;1625;49.884;8.666;2023-02-11T04:37:50;24.37;;;16.97;;
3225;SDS011;1625;49.884;8.666;2023-02-11T04:40:16;22.17;;;16.27;;
3225;SDS011;1625;49.884;8.666;2023-02-11T04:42:41;20.87;;;16.53;;
3225;SDS011;1625;49.884;8.666;2023-02-11T04:45:07;20.53;;;15.33;;
3225;SDS011;1625;49.884;8.666;2023-02-11T04:47:33;24.40;;;18.97;;
3225;SDS011;1625;49.884;8.666;2023-02-11T04:49:59;22.97;;;17.20;;
3225;SDS011;1625;49.884;8.666;2023-02-11T04:52:24;22.53;;;17.20;;
3225;SDS011;1625;49.884;8.666;2023-02-11T04:54:50;22.03;;;16.97;;
3225;SDS011;1625;49.884;8.666;2023-02-11T04:57:15;25.53;;;18.20;;
3225;SDS011;1625;49.884;8.666;2023-02-11T04:59:41;22.60;;;18.73;;
3225;SDS011;1625;49.884;8.666;2023-02-11T05:02:06;28.00;;;17.53;;
3225;SDS011;1625;49.884;8.666;2023-02-11T05:04:32;25.03;;;18.50;;
3225;SDS011;1625;49.884;8.666;2023-02-11T05:06:57;21.53;;;16.87;;
3225;SDS011;1625;49.884;8.666;2023-02-11T05:09:23;24.60;;;17.27;;
3225;SDS011;1625;49.884;8.666;2023-02-11T05:11:48;25.53;;;18.20;;
3225;SDS011;1625;49.884;8.666;2023-02-11T05:14:14;22.93;;;17.20;;
3225;SDS011;1625;49.884;8.666;2023-02-11T05:16:39;24.60;;;17.70;;
3225;SDS011;1625;49.884;8.666;2023-02-11T05:19:05;25.60;;;18.50;;
3225;SDS011;1625;49.884;8.666;2023-02-11T05:21:30;27.23;;;19.57;;
3225;SDS011;1625;49.884;8.666;2023-02-11T05:23:56;24.00;;;18.47;;
3225;SDS011;1625;49.884;8.666;2023-02-11T05:26:22;25.93;;;18.60;;
3225;SDS011;1625;49.884;8.666;2023-02-11T05:28:47;23.90;;;17.60;;
3225;SDS011;1625;49.884;8.666;2023-02-11T05:31:13;22.53;;;17.30;;
3225;SDS011;1625;49.884;8.666;2023-02-11T05:33:39;23.53;;;16.53;;
3225;SDS011;1625;49.884;8.666;2023-02-11T05:36:07;24.70;;;17.30;;
3225;SDS011;1625;49.884;8.666;2023-02-11T05:38:35;24.37;;;17.33;;
3225;SDS011;1625;49.884;8.666;2023-02-11T05:41:01;23.77;;;18.67;;
3225;SDS011;1625;49.884;8.666;2023-02-11T05:43:27;23.80;;;17.97;;
3225;SDS011;1625;49.884;8.666;2023-02-11T05:45:53;24.17;;;18.20;;
3225;SDS011;1625;49.884;8.666;2023-02-11T05:48:19;23.17;;;16.23;;
3225;SDS011;1625;49.884;8.666;2023-02-11T05:50:45;25.13;;;17.47;;
3225;SDS011;1625;49.884;8.666;2023-02-11T05:53:11;21.70;;;16.00;;
3225;SDS011;1625;49.884;8.666;2023-02-11T05:55:36;22.60;;;18.17;;
3225;SDS011;1625;49.884;8.666;2023-02-11T05:58:02;24.50;;;17.60;;
3225;SDS011;1625;49.884;8.666;2023-02-11T06:00:29;18.60;;;15.80;;
3225;SDS011;1625;49.884;8.666;2023-02-11T06:02:55;22.63;;;17.10;;
3225;SDS011;1625;49.884;8.666;2023-02-11T06:05:20;24.23;;;16.83;;
3225;SDS011;1625;49.884;8.666;2023-02-11T06:07:46;20.67;;;16.03;;
3225;SDS011;1625;49.884;8.666;2023-02-11T06:10:11;21.47;;;17.47;;
3225;SDS011;1625;49.884;8.666;2023-02-11T06:12:37;20.47;;;15.00;;
3225;SDS011;1625;49.884;8.666;2023-02-11T06:15:03;23.63;;;16.60;;
3225;SDS011;1625;49.884;8.666;2023-02-11T06:17:29;24.23;;;18.27;;
3225;SDS011;1625;49.884;8.666;2023-02-11T06:19:58;22.77;;;16.37;;
3225;SDS011;1625;49.884;8.666;2023-02-11T06:22:25;23.03;;;15.50;;
3225;SDS011;1625;49.884;8.666;2023-02-11T06:24:52;20.97;;;16.50;;
3225;SDS011;1625;49.884;8.666;2023-02-11T06:27:18;20.30;;;15.80;;
3225;SDS011;1625;49.884;8.666;2023-02-11T06:29:44;22.80;;;15.97;;
3225;SDS011;1625;49.884;8.666;2023-02-11T06:32:10;24.13;;;16.53;;
3225;SDS011;1625;49.884;8.666;2023-02-11T06:34:36;23.90;;;18.10;;
3225;SDS011;1625;49.884;8.666;2023-02-11T06:37:02;21.07;;;16.30;;
3225;SDS011;1625;49.884;8.666;2023-02-11T06:39:28;22.27;;;16.90;;
3225;SDS011;1625;49.884;8.666;2023-02-11T06:41:54;23.00;;;18.33;;
3225;SDS011;1625;49.884;8.666;2023-02-11T06:44:19;20.80;;;15.60;;
3225;SDS011;1625;49.884;8.666;2023-02-11T06:46:45;22.13;;;16.33;;
3225;SDS011;1625;49.884;8.666;2023-02-11T06:49:10;22.03;;;17.20;;
3225;SDS011;1625;49.884;8.666;2023-02-11T06:51:36;20.97;;;17.17;;
3225;SDS011;1625;49.884;8.666;2023-02-11T06:54:03;23.90;;;18.67;;
3225;SDS011;1625;49.884;8.666;2023-02-11T06:56:29;23.17;;;17.17;;
3225;SDS011;1625;49.884;8.666;2023-02-11T06:58:55;23.50;;;17.00;;
3225;SDS011;1625;49.884;8.666;2023-02-11T07:01:20;26.07;;;18.30;;
3225;SDS011;1625;49.884;8.666;2023-02-11T07:03:47;20.70;;;15.37;;
3225;SDS011;1625;49.884;8.666;2023-02-11T07:06:14;24.17;;;17.13;;
3225;SDS011;1625;49.884;8.666;2023-02-11T07:08:42;22.20;;;18.53;;
3225;SDS011;1625;49.884;8.666;2023-02-11T07:11:14;22.30;;;16.80;;
3225;SDS011;1625;49.884;8.666;2023-02-11T07:13:45;24.10;;;18.40;;
3225;SDS011;1625;49.884;8.666;2023-02-11T07:16:13;24.40;;;18.07;;
3225;SDS011;1625;49.884;8.666;2023-02-11T07:18:39;20.07;;;15.90;;
3225;SDS011;1625;49.884;8.666;2023-02-11T07:21:06;23.77;;;16.77;;
3225;SDS011;1625;49.884;8.666;2023-02-11T07:23:33;23.60;;;18.27;;
3225;SDS011;1625;49.884;8.666;2023-02-11T07:26:03;21.20;;;16.77;;
3225;SDS011;1625;49.884;8.666;2023-02-11T07:28:30;23.07;;;17.53;;
3225;SDS011;1625;49.884;8.666;2023-02-11T07:30:55;24.97;;;17.50;;
3225;SDS011;1625;49.884;8.666;2023-02-11T07:33:21;25.47;;;18.27;;
3225;SDS011;1625;49.884;8.666;2023-02-11T07:35:47;26.33;;;17.77;;
3225;SDS011;1625;49.884;8.666;2023-02-11T07:38:12;23.80;;;17.40;;
3225;SDS011;1625;49.884;8.666;2023-02-11T07:40:38;21.67;;;17.07;;
3225;SDS011;1625;49.884;8.666;2023-02-11T07:43:03;25.30;;;17.13;;
3225;SDS011;1625;49.884;8.666;2023-02-11T07:45:29;25.13;;;17.47;;
3225;SDS011;1625;49.884;8.666;2023-02-11T07:47:55;24.13;;;17.90;;
3225;SDS011;1625;49.884;8.666;2023-02-11T07:50:20;23.37;;;18.00;;
3225;SDS011;1625;49.884;8.666;2023-02-11T07:52:46;23.50;;;17.20;;
3225;SDS011;1625;49.884;8.666;2023-02-11T07:55:11;22.70;;;17.23;;
3225;SDS011;1625;49.884;8.666;2023-02-11T07:57:37;22.00;;;17.50;;
3225;SDS011;1625;49.884;8.666;2023-02-11T08:00:03;23.60;;;17.30;;
3225;SDS011;1625;49.884;8.666;2023-02-11T08:02:29;23.23;;;17.90;;
3225;SDS011;1625;49.884;8.666;2023-02-11T08:04:55;24.50;;;18.30;;
3225;SDS011;1625;49.884;8.666;2023-02-11T08:07:20;21.47;;;18.43;;
3225;SDS011;1625;49.884;8.666;2023-02-11T08:09:46;24.57;;;17.97;;
3225;SDS011;1625;49.884;8.666;2023-02-11T08:12:11;23.30;;;16.73;;
3225;SDS011;1625;49.884;8.666;2023-02-11T08:14:37;25.87;;;17.60;;
3225;SDS011;1625;49.884;8.666;2023-02-11T08:17:03;24.63;;;18.60;;
3225;SDS011;1625;49.884;8.666;2023-02-11T08:19:28;21.80;;;18.23;;
3225;SDS011;1625;49.884;8.666;2023-02-11T08:21:54;22.50;;;17.70;;
3225;SDS011;1625;49.884;8.666;2023-02-11T08:24:20;23.30;;;18.77;;
3225;SDS011;1625;49.884;8.666;2023-02-11T08:26:47;24.17;;;18.90;;
3225;SDS011;1625;49.884;8.666;2023-02-11T08:29:13;22.97;;;18.13;;
3225;SDS011;1625;49.884;8.666;2023-02-11T08:31:42;29.73;;;19.80;;
3225;SDS011;1625;49.884;8.666;2023-02-11T08:34:09;24.50;;;19.00;;
3225;SDS011;1625;49.884;8.666;2023-02-11T08:36:36;23.70;;;18.60;;
3225;SDS011;1625;49.884;8.666;2023-02-11T08:39:04;24.37;;;18.23;;
3225;SDS011;1625;49.884;8.666;2023-02-11T08:41:36;26.37;;;19.40;;
3225;SDS011;1625;49.884;8.666;2023-02-11T08:44:02;24.17;;;19.67;;
3225;SDS011;1625;49.884;8.666;2023-02-11T08:46:28;29.40;;;19.60;;
3225;SDS011;1625;49.884;8.666;2023-02-11T08:48:54;22.53;;;20.07;;
3225;SDS011;1625;49.884;8.666;2023-02-11T08:51:21;24.00;;;19.33;;
3225;SDS011;1625;49.884;8.666;2023-02-11T08:53:49;27.90;;;20.17;;
3225;SDS011;1625;49.884;8.666;2023-02-11T08:56:15;25.93;;;20.80;;
3225;SDS011;1625;49.884;8.666;2023-02-11T08:58:42;23.97;;;20.13;;
3225;SDS011;1625;49.884;8.666;2023-02-11T09:01:09;25.83;;;20.33;;
3225;SDS011;1625;49.884;8.666;2023-02-11T09:03:43;24.70;;;19.07;;
3225;SDS011;1625;49.884;8.666;2023-02-11T09:06:09;27.57;;;19.73;;
3225;SDS011;1625;49.884;8.666;2023-02-11T09:08:37;25.90;;;19.57;;
3225;SDS011;1625;49.884;8.666;2023-02-11T09:11:06;23.97;;;19.97;;
3225;SDS011;1625;49.884;8.666;2023-02-11T09:13:32;26.40;;;20.57;;
3225;SDS011;1625;49.884;8.666;2023-02-11T09:15:58;23.93;;;20.53;;
3225;SDS011;1625;49.884;8.666;2023-02-11T09:18:25;28.10;;;19.00;;
3225;SDS011;1625;49.884;8.666;2023-02-11T09:20:50;24.97;;;21.20;;
3225;SDS011;1625;49.884;8.666;2023-02-11T09:23:16;25.87;;;20.00;;
3225;SDS011;1625;49.884;8.666;2023-02-11T09:25:41;26.27;;;19.17;;
3225;SDS011;1625;49.884;8.666;2023-02-11T09:28:07;23.03;;;19.20;;
3225;SDS011;1625;49.884;8.666;2023-02-11T09:30:34;25.90;;;20.87;;
3225;SDS011;1625;49.884;8.666;2023-02-11T09:33:00;25.80;;;20.67;;
3225;SDS011;1625;49.884;8.666;2023-02-11T09:35:26;24.13;;;21.53;;
3225;SDS011;1625;49.884;8.666;2023-02-11T09:37:52;26.10;;;21.30;;
3225;SDS011;1625;49.884;8.666;2023-02-11T09:40:17;26.10;;;22.40;;
3225;SDS011;1625;49.884;8.666;2023-02-11T09:42:45;26.10;;;21.10;;
3225;SDS011;1625;49.884;8.666;2023-02-11T09:45:16;24.47;;;21.57;;
3225;SDS011;1625;49.884;8.666;2023-02-11T09:47:45;28.83;;;21.97;;
3225;SDS011;1625;49.884;8.666;2023-02-11T09:50:17;24.50;;;19.73;;
3225;SDS011;1625;49.884;8.666;2023-02-11T09:52:55;27.87;;;21.10;;
3225;SDS011;1625;49.884;8.666;2023-02-11T09:55:29;27.97;;;21.13;;
3225;SDS011;1625;49.884;8.666;2023-02-11T09:57:55;29.47;;;23.03;;
3225;SDS011;1625;49.884;8.666;2023-02-11T10:00:23;28.03;;;23.10;;
3225;SDS011;1625;49.884;8.666;2023-02-11T10:09:05;28.40;;;21.70;;
3225;SDS011;1625;49.884;8.666;2023-02-11T10:17:34;28.33;;;22.13;;
3225;SDS011;1625;49.884;8.666;2023-02-11T10:23:12;26.83;;;22.07;;
3225;SDS011;1625;49.884;8.666;2023-02-11T10:25:45;24.90;;;21.03;;
3225;SDS011;1625;49.884;8.666;2023-02-11T10:28:19;26.70;;;21.80;;
3225;SDS011;1625;49.884;8.666;2023-02-11T10:36:03;31.00;;;24.60;;
3225;SDS011;1625;49.884;8.666;2023-02-11T10:38:29;28.23;;;23.43;;
3225;SDS011;1625;49.884;8.666;2023-02-11T10:40:56;26.63;;;22.73;;
3225;SDS011;1625;49.884;8.666;2023-02-11T10:43:23;27.97;;;23.13;;
3225;SDS011;1625;49.884;8.666;2023-02-11T10:45:51;27.40;;;23.33;;
3225;SDS011;1625;49.884;8.666;2023-02-11T10:51:23;25.43;;;22.60;;
3225;SDS011;1625;49.884;8.666;2023-02-11T10:56:29;27.80;;;22.43;;
3225;SDS011;1625;49.884;8.666;2023-02-11T10:58:58;27.77;;;22.50;;
3225;SDS011;1625;49.884;8.666;2023-02-11T11:01:39;27.50;;;23.17;;
3225;SDS011;1625;49.884;8.666;2023-02-11T11:07:08;27.80;;;22.17;;
3225;SDS011;1625;49.884;8.666;2023-02-11T11:09:48;23.90;;;21.30;;
3225;SDS011;1625;49.884;8.666;2023-02-11T11:12:23;28.20;;;22.97;;
3225;SDS011;1625;49.884;8.666;2023-02-11T11:15:17;25.83;;;20.90;;
3225;SDS011;1625;49.884;8.666;2023-02-11T11:17:44;23.90;;;20.53;;
3225;SDS011;1625;49.884;8.666;2023-02-11T11:22:49;23.93;;;20.83;;
3225;SDS011;1625;49.884;8.666;2023-02-11T11:25:23;26.23;;;22.00;;
3225;SDS011;1625;49.884;8.666;2023-02-11T11:27:53;26.17;;;23.23;;
3225;SDS011;1625;49.884;8.666;2023-02-11T11:30:21;27.27;;;22.60;;
3225;SDS011;1625;49.884;8.666;2023-02-11T11:32:50;32.53;;;23.90;;
3225;SDS011;1625;49.884;8.666;2023-02-11T11:35:34;26.80;;;22.50;;
3225;SDS011;1625;49.884;8.666;2023-02-11T11:38:01;27.13;;;24.30;;
3225;SDS011;1625;49.884;8.666;2023-02-11T11:40:29;29.07;;;23.20;;
3225;SDS011;1625;49.884;8.666;2023-02-11T11:43:05;27.37;;;22.60;;
3225;SDS011;1625;49.884;8.666;2023-02-11T11:45:30;28.47;;;21.30;;
3225;SDS011;1625;49.884;8.666;2023-02-11T11:56:05;29.80;;;23.07;;
3225;SDS011;1625;49.884;8.666;2023-02-11T11:58:36;26.60;;;21.80;;
3225;SDS011;1625;49.884;8.666;2023-02-11T12:08:49;25.47;;;18.63;;
3225;SDS011;1625;49.884;8.666;2023-02-11T12:11:30;23.93;;;20.57;;
3225;SDS011;1625;49.884;8.666;2023-02-11T12:17:19;29.63;;;20.37;;
3225;SDS011;1625;49.884;8.666;2023-02-11T12:25:23;28.07;;;21.10;;
3225;SDS011;1625;49.884;8.666;2023-02-11T12:30:33;23.77;;;19.57;;
3225;SDS011;1625;49.884;8.666;2023-02-11T12:35:58;24.50;;;20.47;;
3225;SDS011;1625;49.884;8.666;2023-02-11T12:38:48;23.73;;;21.13;;
3225;SDS011;1625;49.884;8.666;2023-02-11T12:41:20;28.97;;;23.10;;
3225;SDS011;1625;49.884;8.666;2023-02-11T12:49:50;26.67;;;21.33;;
3225;SDS011;1625;49.884;8.666;2023-02-11T12:52:43;24.70;;;21.23;;
3225;SDS011;1625;49.884;8.666;2023-02-11T12:55:27;29.00;;;22.53;;
3225;SDS011;1625;49.884;8.666;2023-02-11T12:57:55;26.40;;;22.07;;
3225;SDS011;1625;49.884;8.666;2023-02-11T13:00:24;27.07;;;23.60;;
3225;SDS011;1625;49.884;8.666;2023-02-11T13:02:58;28.43;;;23.07;;
3225;SDS011;1625;49.884;8.666;2023-02-11T13:10:34;25.10;;;21.80;;
3225;SDS011;1625;49.884;8.666;2023-02-11T13:13:48;30.10;;;24.50;;
3225;SDS011;1625;49.884;8.666;2023-02-11T13:16:27;27.87;;;23.30;;
3225;SDS011;1625;49.884;8.666;2023-02-11T13:24:54;24.93;;;22.10;;
3225;SDS011;1625;49.884;8.666;2023-02-11T13:32:05;25.60;;;20.77;;
3225;SDS011;1625;49.884;8.666;2023-02-11T13:37:05;26.53;;;21.60;;
3225;SDS011;1625;49.884;8.666;2023-02-11T13:40:30;22.00;;;18.17;;
3225;SDS011;1625;49.884;8.666;2023-02-11T13:42:46;25.57;;;19.00;;
3225;SDS011;1625;49.884;8.666;2023-02-11T13:50:57;22.47;;;17.40;;
3225;SDS011;1625;49.884;8.666;2023-02-11T13:53:25;27.50;;;19.30;;
3225;SDS011;1625;49.884;8.666;2023-02-11T13:55:53;20.70;;;17.33;;
3225;SDS011;1625;49.884;8.666;2023-02-11T13:58:52;21.70;;;17.93;;
3225;SDS011;1625;49.884;8.666;2023-02-11T14:04:17;22.07;;;17.77;;
3225;SDS011;1625;49.884;8.666;2023-02-11T14:07:26;17.93;;;16.00;;
3225;SDS011;1625;49.884;8.666;2023-02-11T14:10:47;18.30;;;16.30;;
3225;SDS011;1625;49.884;8.666;2023-02-11T14:21:12;23.33;;;18.10;;
3225;SDS011;1625;49.884;8.666;2023-02-11T14:23:41;21.40;;;17.10;;
3225;SDS011;1625;49.884;8.666;2023-02-11T14:29:18;19.43;;;16.80;;
3225;SDS011;1625;49.884;8.666;2023-02-11T14:35:11;21.00;;;17.83;;
3225;SDS011;1625;49.884;8.666;2023-02-11T14:41:00;20.43;;;16.43;;
3225;SDS011;1625;49.884;8.666;2023-02-11T14:43:43;19.87;;;16.90;;
3225;SDS011;1625;49.884;8.666;2023-02-11T14:46:13;19.03;;;16.70;;
3225;SDS011;1625;49.884;8.666;2023-02-11T14:48:42;22.10;;;17.63;;
3225;SDS011;1625;49.884;8.666;2023-02-11T14:51:15;23.27;;;19.97;;
3225;SDS011;1625;49.884;8.666;2023-02-11T14:53:46;26.50;;;20.50;;
3225;SDS011;1625;49.884;8.666;2023-02-11T14:56:25;23.77;;;21.40;;
3225;SDS011;1625;49.884;8.666;2023-02-11T14:58:55;21.33;;;16.67;;
3225;SDS011;1625;49.884;8.666;2023-02-11T15:03:57;22.30;;;18.03;;
3225;SDS011;1625;49.884;8.666;2023-02-11T15:08:54;20.23;;;18.07;;
3225;SDS011;1625;49.884;8.666;2023-02-11T15:11:49;18.60;;;16.53;;
3225;SDS011;1625;49.884;8.666;2023-02-11T15:14:26;18.53;;;16.63;;
3225;SDS011;1625;49.884;8.666;2023-02-11T15:16:57;19.30;;;16.60;;
3225;SDS011;1625;49.884;8.666;2023-02-11T15:19:29;20.73;;;16.93;;
3225;SDS011;1625;49.884;8.666;2023-02-11T15:22:04;19.67;;;16.97;;
3225;SDS011;1625;49.884;8.666;2023-02-11T15:24:41;19.67;;;17.57;;
3225;SDS011;1625;49.884;8.666;2023-02-11T15:29:36;20.57;;;18.37;;
3225;SDS011;1625;49.884;8.666;2023-02-11T15:32:17;22.00;;;19.23;;
3225;SDS011;1625;49.884;8.666;2023-02-11T15:34:48;21.40;;;18.50;;
3225;SDS011;1625;49.884;8.666;2023-02-11T15:37:23;23.37;;;20.57;;
3225;SDS011;1625;49.884;8.666;2023-02-11T15:39:51;24.67;;;20.33;;
3225;SDS011;1625;49.884;8.666;2023-02-11T15:42:27;26.40;;;20.10;;
3225;SDS011;1625;49.884;8.666;2023-02-11T15:45:10;26.93;;;22.10;;
3225;SDS011;1625;49.884;8.666;2023-02-11T15:47:51;23.77;;;19.80;;
3225;SDS011;1625;49.884;8.666;2023-02-11T15:50:19;23.23;;;19.23;;
3225;SDS011;1625;49.884;8.666;2023-02-11T15:52:47;23.60;;;20.73;;
3225;SDS011;1625;49.884;8.666;2023-02-11T15:55:14;26.47;;;19.97;;
3225;SDS011;1625;49.884;8.666;2023-02-11T15:57:42;23.80;;;21.20;;
3225;SDS011;1625;49.884;8.666;2023-02-11T16:00:19;23.30;;;19.80;;
3225;SDS011;1625;49.884;8.666;2023-02-11T16:02:47;24.60;;;19.77;;
3225;SDS011;1625;49.884;8.666;2023-02-11T16:05:34;23.37;;;20.40;;
3225;SDS011;1625;49.884;8.666;2023-02-11T16:08:11;21.97;;;18.40;;
3225;SDS011;1625;49.884;8.666;2023-02-11T16:10:54;24.37;;;20.23;;
3225;SDS011;1625;49.884;8.666;2023-02-11T16:13:32;25.33;;;20.47;;
3225;SDS011;1625;49.884;8.666;2023-02-11T16:16:18;23.30;;;20.70;;
3225;SDS011;1625;49.884;8.666;2023-02-11T16:18:49;24.57;;;19.40;;
3225;SDS011;1625;49.884;8.666;2023-02-11T16:21:16;29.30;;;22.33;;
3225;SDS011;1625;49.884;8.666;2023-02-11T16:23:51;25.93;;;22.20;;
3225;SDS011;1625;49.884;8.666;2023-02-11T16:26:20;25.63;;;21.97;;
3225;SDS011;1625;49.884;8.666;2023-02-11T16:29:01;25.23;;;21.10;;
3225;SDS011;1625;49.884;8.666;2023-02-11T16:31:35;26.23;;;21.10;;
3225;SDS011;1625;49.884;8.666;2023-02-11T16:34:06;23.20;;;20.40;;
3225;SDS011;1625;49.884;8.666;2023-02-11T16:36:37;24.50;;;21.80;;
3225;SDS011;1625;49.884;8.666;2023-02-11T16:39:03;22.80;;;19.70;;
3225;SDS011;1625;49.884;8.666;2023-02-11T16:41:34;24.90;;;22.20;;
3225;SDS011;1625;49.884;8.666;2023-02-11T16:44:00;25.10;;;20.90;;
3225;SDS011;1625;49.884;8.666;2023-02-11T16:46:25;24.33;;;20.70;;
3225;SDS011;1625;49.884;8.666;2023-02-11T16:48:51;25.43;;;22.47;;
3225;SDS011;1625;49.884;8.666;2023-02-11T16:51:20;24.70;;;20.80;;
3225;SDS011;1625;49.884;8.666;2023-02-11T16:53:46;26.60;;;22.50;;
3225;SDS011;1625;49.884;8.666;2023-02-11T16:56:12;23.03;;;20.50;;
3225;SDS011;1625;49.884;8.666;2023-02-11T16:58:40;24.43;;;21.83;;
3225;SDS011;1625;49.884;8.666;2023-02-11T17:01:06;24.53;;;21.53;;
3225;SDS011;1625;49.884;8.666;2023-02-11T17:03:32;27.97;;;21.37;;
3225;SDS011;1625;49.884;8.666;2023-02-11T17:06:04;26.83;;;21.73;;
3225;SDS011;1625;49.884;8.666;2023-02-11T17:08:34;24.07;;;20.93;;
3225;SDS011;1625;49.884;8.666;2023-02-11T17:10:59;25.73;;;21.27;;
3225;SDS011;1625;49.884;8.666;2023-02-11T17:13:26;26.17;;;21.00;;
3225;SDS011;1625;49.884;8.666;2023-02-11T17:15:53;23.97;;;20.67;;
3225;SDS011;1625;49.884;8.666;2023-02-11T17:18:18;28.03;;;21.50;;
3225;SDS011;1625;49.884;8.666;2023-02-11T17:23:30;23.77;;;20.60;;
3225;SDS011;1625;49.884;8.666;2023-02-11T17:25:55;23.60;;;20.23;;
3225;SDS011;1625;49.884;8.666;2023-02-11T17:28:21;22.50;;;20.10;;
3225;SDS011;1625;49.884;8.666;2023-02-11T17:30:46;24.50;;;21.10;;
3225;SDS011;1625;49.884;8.666;2023-02-11T17:33:12;24.80;;;21.67;;
3225;SDS011;1625;49.884;8.666;2023-02-11T17:35:38;24.73;;;22.10;;